createdAt,value
2023-01-30T00:01:32.047Z,22.98
2023-01-30T00:03:59.159Z,24.25
2023-01-30T00:06:26.295Z,26.73
2023-01-30T00:08:53.212Z,23.90
2023-01-30T00:11:21.113Z,26.13
2023-01-30T00:13:50.844Z,26.17
2023-01-30T00:16:18.625Z,27.17
2023-01-30T00:18:45.949Z,26.80
2023-01-30T00:21:14.611Z,27.75
2023-01-30T00:23:41.949Z,27.15
2023-01-30T00:26:09.909Z,27.55
2023-01-30T00:28:39.837Z,28.95
2023-01-30T00:31:07.324Z,30.02
2023-01-30T00:33:34.050Z,29.20
2023-01-30T00:36:02.977Z,29.17
2023-01-30T00:38:29.832Z,27.42
2023-01-30T00:40:56.533Z,29.80
2023-01-30T00:43:41.563Z,29.73
2023-01-30T00:46:52.330Z,29.35
2023-01-30T00:49:19.594Z,29.73
2023-01-30T00:51:46.402Z,28.13
2023-01-30T00:54:13.297Z,27.70
2023-01-30T00:56:40.039Z,31.13
2023-01-30T00:59:06.747Z,27.95
2023-01-30T01:01:33.496Z,29.17
2023-01-30T01:04:00.233Z,27.05
2023-01-30T01:06:27.051Z,27.60
2023-01-30T01:08:53.852Z,32.47
2023-01-30T01:11:26.911Z,28.27
2023-01-30T01:13:56.140Z,28.40
2023-01-30T01:16:24.203Z,28.70
2023-01-30T01:18:51.908Z,26.05
2023-01-30T01:21:20.297Z,30.48
2023-01-30T01:23:52.467Z,27.42
2023-01-30T01:26:19.929Z,27.60
2023-01-30T01:28:46.857Z,28.10
2023-01-30T01:31:16.372Z,30.00
2023-01-30T01:33:43.211Z,29.38
2023-01-30T01:36:10.002Z,29.33
2023-01-30T01:38:36.855Z,32.40
2023-01-30T01:41:04.994Z,31.80
2023-01-30T01:43:35.096Z,30.20
2023-01-30T01:46:11.883Z,28.73
2023-01-30T01:48:58.166Z,29.77
2023-01-30T01:51:24.865Z,30.50
2023-01-30T01:54:01.845Z,30.42
2023-01-30T01:56:29.603Z,30.27
2023-01-30T01:59:01.457Z,29.98
2023-01-30T02:01:29.790Z,35.63
2023-01-30T02:04:03.696Z,30.55
2023-01-30T02:06:31.712Z,28.38
2023-01-30T02:09:05.477Z,28.80
2023-01-30T02:11:42.267Z,32.15
2023-01-30T02:14:10.977Z,29.33
2023-01-30T02:16:38.092Z,27.30
2023-01-30T02:19:15.059Z,29.15
2023-01-30T02:21:59.726Z,29.23
2023-01-30T02:24:38.967Z,24.98
2023-01-30T02:27:14.650Z,31.27
2023-01-30T02:30:02.269Z,30.58
2023-01-30T02:32:51.237Z,30.48
2023-01-30T02:35:35.937Z,28.17
2023-01-30T02:38:10.875Z,29.55
2023-01-30T02:40:41.142Z,28.00
2023-01-30T02:43:24.679Z,28.20
2023-01-30T02:46:04.220Z,28.10
2023-01-30T02:48:42.704Z,27.88
2023-01-30T02:51:26.676Z,29.75
2023-01-30T02:53:54.674Z,27.55
2023-01-30T02:56:21.644Z,29.13
2023-01-30T02:58:53.391Z,30.23
2023-01-30T03:01:26.274Z,26.25
2023-01-30T03:04:26.567Z,29.23
2023-01-30T03:07:17.491Z,28.20
2023-01-30T03:10:05.595Z,28.42
2023-01-30T03:12:40.900Z,29.05
2023-01-30T03:15:24.027Z,27.98
2023-01-30T03:17:51.407Z,35.65
2023-01-30T03:20:20.648Z,28.98
2023-01-30T03:22:47.822Z,31.27
2023-01-30T03:25:27.025Z,32.08
2023-01-30T03:27:55.896Z,31.58
2023-01-30T03:30:26.266Z,26.77
2023-01-30T03:33:00.585Z,30.85
2023-01-30T03:35:27.525Z,28.63
2023-01-30T03:37:54.660Z,33.97
2023-01-30T03:40:21.606Z,31.55
2023-01-30T03:42:49.537Z,30.20
2023-01-30T03:45:17.034Z,30.20
2023-01-30T03:47:46.312Z,32.45
2023-01-30T03:50:13.317Z,34.72
2023-01-30T03:52:40.800Z,33.65
2023-01-30T03:55:11.772Z,32.38
2023-01-30T03:57:39.051Z,31.15
2023-01-30T04:00:06.590Z,29.15
2023-01-30T04:02:43.102Z,28.17
2023-01-30T04:05:12.478Z,32.42
2023-01-30T04:07:43.706Z,27.35
2023-01-30T04:10:11.071Z,29.90
2023-01-30T04:12:37.815Z,30.30
2023-01-30T04:15:05.895Z,29.25
2023-01-30T04:17:51.144Z,27.13
2023-01-30T04:20:29.518Z,31.40
2023-01-30T04:22:57.338Z,30.00
2023-01-30T04:25:26.094Z,36.15
2023-01-30T04:27:53.072Z,33.10
2023-01-30T04:30:27.457Z,29.75
2023-01-30T04:33:05.932Z,31.20
2023-01-30T04:35:32.653Z,31.08
2023-01-30T04:37:59.414Z,32.90
2023-01-30T04:40:27.344Z,30.27
2023-01-30T04:42:55.303Z,29.20
2023-01-30T04:45:43.818Z,30.10
2023-01-30T04:48:10.675Z,27.73
2023-01-30T04:50:38.298Z,28.08
2023-01-30T04:53:06.580Z,30.63
2023-01-30T04:55:34.270Z,30.25
2023-01-30T04:58:01.260Z,30.48
2023-01-30T05:00:28.744Z,30.20
2023-01-30T05:02:59.183Z,29.77
2023-01-30T05:05:27.106Z,29.88
2023-01-30T05:07:54.441Z,34.80
2023-01-30T05:10:21.857Z,30.92
2023-01-30T05:12:49.062Z,30.27
2023-01-30T05:15:16.171Z,34.00
2023-01-30T05:17:44.728Z,32.83
2023-01-30T05:20:12.735Z,26.05
2023-01-30T05:22:39.494Z,32.50
2023-01-30T05:25:06.686Z,34.70
2023-01-30T05:27:33.403Z,31.67
2023-01-30T05:30:00.117Z,33.13
2023-01-30T05:32:27.538Z,31.38
2023-01-30T05:34:54.241Z,30.25
2023-01-30T05:37:21.014Z,32.53
2023-01-30T05:39:48.104Z,34.85
2023-01-30T05:42:16.086Z,31.00
2023-01-30T05:44:42.882Z,30.10
2023-01-30T05:47:09.598Z,36.47
2023-01-30T05:49:36.379Z,33.60
2023-01-30T05:52:03.101Z,34.08
2023-01-30T05:54:29.938Z,32.70
2023-01-30T05:56:56.777Z,30.48
2023-01-30T05:59:23.573Z,34.45
2023-01-30T06:01:50.363Z,32.97
2023-01-30T06:04:17.120Z,36.20
2023-01-30T06:06:43.847Z,30.58
2023-01-30T06:09:11.564Z,30.92
2023-01-30T06:11:38.912Z,33.20
2023-01-30T06:14:05.719Z,32.97
2023-01-30T06:16:32.563Z,33.30
2023-01-30T06:18:59.302Z,32.28
2023-01-30T06:21:26.109Z,32.05
2023-01-30T06:23:53.501Z,32.97
2023-01-30T06:26:20.319Z,35.35
2023-01-30T06:28:47.177Z,35.47
2023-01-30T06:31:16.441Z,36.55
2023-01-30T06:33:44.028Z,34.58
2023-01-30T06:36:10.881Z,35.05
2023-01-30T06:38:37.770Z,29.83
2023-01-30T06:41:04.616Z,34.58
2023-01-30T06:43:31.433Z,32.10
2023-01-30T06:46:00.066Z,31.95
2023-01-30T06:48:27.004Z,30.48
2023-01-30T06:50:53.994Z,29.80
2023-01-30T06:53:22.341Z,27.77
2023-01-30T06:55:49.116Z,25.70
2023-01-30T06:58:16.077Z,28.75
2023-01-30T07:00:43.754Z,26.95
2023-01-30T07:03:18.145Z,25.42
2023-01-30T07:05:47.008Z,26.45
2023-01-30T07:08:15.215Z,26.50
2023-01-30T07:10:43.236Z,26.98
2023-01-30T07:13:10.717Z,31.83
2023-01-30T07:15:37.721Z,30.08
2023-01-30T07:18:05.257Z,30.75
2023-01-30T07:20:33.803Z,32.60
2023-01-30T07:23:03.474Z,28.92
2023-01-30T07:25:31.087Z,29.05
2023-01-30T07:28:00.579Z,28.65
2023-01-30T07:30:29.433Z,31.02
2023-01-30T07:32:59.888Z,29.75
2023-01-30T07:35:28.692Z,30.83
2023-01-30T07:37:55.475Z,34.50
2023-01-30T07:40:23.465Z,30.83
2023-01-30T07:43:11.593Z,28.65
2023-01-30T07:45:47.598Z,29.13
2023-01-30T07:48:17.074Z,33.25
2023-01-30T07:50:44.718Z,29.48
2023-01-30T07:53:14.316Z,34.30
2023-01-30T07:55:41.749Z,32.50
2023-01-30T07:58:10.706Z,31.13
2023-01-30T08:00:37.823Z,30.75
2023-01-30T08:03:04.686Z,28.02
2023-01-30T08:05:31.818Z,26.65
2023-01-30T08:08:00.822Z,29.23
2023-01-30T08:10:27.631Z,26.77
2023-01-30T08:12:54.479Z,26.50
2023-01-30T08:15:22.845Z,27.42
2023-01-30T08:17:57.108Z,29.55
2023-01-30T08:20:24.967Z,25.90
2023-01-30T08:22:51.808Z,27.67
2023-01-30T08:25:18.911Z,25.83
2023-01-30T08:27:45.842Z,28.42
2023-01-30T08:30:13.639Z,26.08
2023-01-30T08:32:40.499Z,23.27
2023-01-30T08:35:08.672Z,26.05
2023-01-30T08:37:35.553Z,24.30
2023-01-30T08:40:02.494Z,25.13
2023-01-30T08:42:29.668Z,24.08
2023-01-30T08:45:00.467Z,25.05
2023-01-30T08:49:57.700Z,21.70
2023-01-30T08:52:24.596Z,23.13
2023-01-30T08:54:51.465Z,22.73
2023-01-30T08:57:18.493Z,23.50
2023-01-30T08:59:45.853Z,20.95
2023-01-30T09:02:13.364Z,22.55
2023-01-30T09:04:40.240Z,20.52
2023-01-30T09:07:07.146Z,21.95
2023-01-30T09:09:34.278Z,21.67
2023-01-30T09:12:04.627Z,20.27
2023-01-30T09:17:01.305Z,17.45
2023-01-30T09:19:29.299Z,18.50
2023-01-30T09:21:56.615Z,18.70
2023-01-30T09:24:26.689Z,23.15
2023-01-30T09:26:54.684Z,22.48
2023-01-30T09:29:21.577Z,31.05
2023-01-30T09:31:48.432Z,20.65
2023-01-30T09:34:15.447Z,20.60
2023-01-30T09:36:42.445Z,19.38
2023-01-30T09:39:09.544Z,19.05
2023-01-30T09:41:42.185Z,22.80
2023-01-30T09:44:38.277Z,29.02
2023-01-30T09:47:19.284Z,20.23
2023-01-30T09:50:21.741Z,20.77
2023-01-30T09:52:54.532Z,21.60
2023-01-30T09:55:23.306Z,21.15
2023-01-30T09:57:51.672Z,25.85
2023-01-30T10:00:23.757Z,23.58
2023-01-30T10:03:09.204Z,23.88
2023-01-30T10:05:45.468Z,24.02
2023-01-30T10:08:24.527Z,26.30
2023-01-30T10:11:08.943Z,24.92
2023-01-30T10:13:39.298Z,22.58
2023-01-30T10:16:25.171Z,16.75
2023-01-30T10:19:33.607Z,13.05
2023-01-30T10:22:11.944Z,14.35
2023-01-30T10:25:13.224Z,11.50
2023-01-30T10:27:52.558Z,12.73
2023-01-30T10:30:20.650Z,14.00
2023-01-30T10:33:01.040Z,15.35
2023-01-30T10:35:38.303Z,16.15
2023-01-30T10:38:21.006Z,17.17
2023-01-30T10:41:13.947Z,20.37
2023-01-30T10:43:48.129Z,14.77
2023-01-30T10:46:17.745Z,17.95
2023-01-30T10:48:57.126Z,16.08
2023-01-30T10:51:27.028Z,16.35
2023-01-30T10:54:03.820Z,14.00
2023-01-30T10:56:30.566Z,15.65
2023-01-30T10:59:23.938Z,23.00
2023-01-30T11:02:16.974Z,16.95
2023-01-30T11:05:17.090Z,17.27
2023-01-30T11:07:46.837Z,18.02
2023-01-30T11:10:25.885Z,17.73
2023-01-30T11:13:00.654Z,20.63
2023-01-30T11:15:41.117Z,19.70
2023-01-30T11:19:05.290Z,18.13
2023-01-30T11:21:13.190Z,20.98
2023-01-30T11:23:44.625Z,19.15
2023-01-30T11:26:46.840Z,22.38
2023-01-30T11:29:30.366Z,18.88
2023-01-30T11:32:02.924Z,20.33
2023-01-30T11:34:29.791Z,24.02
2023-01-30T11:37:23.569Z,22.67
2023-01-30T11:39:53.881Z,27.80
2023-01-30T11:42:24.359Z,23.20
2023-01-30T11:45:10.813Z,22.60
2023-01-30T11:47:57.711Z,22.40
2023-01-30T11:53:04.046Z,24.77
2023-01-30T11:55:37.616Z,24.38
2023-01-30T11:58:08.232Z,22.98
2023-01-30T12:00:42.366Z,27.23
2023-01-30T12:03:14.686Z,24.05
2023-01-30T12:05:44.604Z,28.63
2023-01-30T12:08:24.790Z,24.83
2023-01-30T12:11:02.844Z,26.25
2023-01-30T12:13:45.543Z,23.63
2023-01-30T12:16:26.968Z,25.65
2023-01-30T12:19:06.398Z,30.52
2023-01-30T12:22:07.394Z,27.38
2023-01-30T12:24:45.593Z,24.13
2023-01-30T12:27:44.860Z,22.55
2023-01-30T12:30:36.055Z,22.98
2023-01-30T12:33:07.099Z,24.27
2023-01-30T12:36:03.480Z,22.30
2023-01-30T12:38:43.097Z,24.92
2023-01-30T12:41:32.146Z,23.65
2023-01-30T12:44:10.318Z,25.45
2023-01-30T12:46:56.026Z,22.75
2023-01-30T12:49:53.876Z,24.25
2023-01-30T12:52:57.510Z,22.30
2023-01-30T12:55:51.505Z,27.30
2023-01-30T12:58:56.913Z,23.23
2023-01-30T13:01:43.347Z,25.08
2023-01-30T13:05:04.121Z,26.05
2023-01-30T13:07:59.850Z,28.58
2023-01-30T13:10:35.600Z,24.48
2023-01-30T13:13:35.865Z,28.13
2023-01-30T13:16:05.989Z,10.48
2023-01-30T13:18:50.878Z,9.93
2023-01-30T13:21:41.128Z,6.38
2023-01-30T13:24:30.748Z,7.32
2023-01-30T13:27:00.697Z,4.35
2023-01-30T13:29:38.176Z,6.60
2023-01-30T13:32:27.953Z,7.68
2023-01-30T13:34:59.432Z,5.80
2023-01-30T13:37:27.133Z,7.85
2023-01-30T13:40:00.863Z,5.50
2023-01-30T13:42:33.523Z,7.00
2023-01-30T13:45:02.104Z,6.00
2023-01-30T13:47:53.872Z,7.05
2023-01-30T13:50:29.232Z,8.00
2023-01-30T13:53:05.178Z,7.95
2023-01-30T13:55:45.435Z,7.53
2023-01-30T13:58:34.563Z,8.45
2023-01-30T14:01:01.588Z,7.22
2023-01-30T14:03:33.382Z,6.25
2023-01-30T14:06:02.800Z,6.55
2023-01-30T14:08:45.735Z,6.47
2023-01-30T14:11:55.559Z,6.63
2023-01-30T14:14:40.694Z,8.75
2023-01-30T14:17:17.582Z,6.50
2023-01-30T14:20:05.342Z,8.18
2023-01-30T14:22:47.176Z,6.05
2023-01-30T14:25:26.018Z,7.55
2023-01-30T14:27:53.988Z,8.07
2023-01-30T14:30:35.195Z,7.50
2023-01-30T14:33:04.488Z,7.55
2023-01-30T14:35:34.305Z,7.35
2023-01-30T14:38:12.031Z,7.05
2023-01-30T14:40:46.990Z,8.10
2023-01-30T14:43:16.631Z,9.18
2023-01-30T14:45:49.762Z,9.27
2023-01-30T14:48:27.209Z,7.70
2023-01-30T14:51:25.113Z,9.48
2023-01-30T14:53:59.640Z,8.82
2023-01-30T14:57:08.494Z,7.63
2023-01-30T15:00:15.077Z,6.97
2023-01-30T15:02:50.470Z,7.07
2023-01-30T15:05:27.715Z,7.55
2023-01-30T15:08:18.890Z,8.25
2023-01-30T15:11:21.238Z,9.25
2023-01-30T15:14:22.430Z,7.05
2023-01-30T15:17:03.083Z,7.18
2023-01-30T15:19:33.090Z,7.30
2023-01-30T15:21:59.786Z,7.30
2023-01-30T15:24:48.308Z,7.68
2023-01-30T15:27:37.479Z,7.97
2023-01-30T15:30:23.479Z,8.45
2023-01-30T15:33:06.992Z,6.00
2023-01-30T15:35:33.696Z,7.22
2023-01-30T15:38:00.435Z,9.13
2023-01-30T15:40:29.892Z,7.28
2023-01-30T15:42:56.608Z,7.65
2023-01-30T15:45:38.639Z,10.20
2023-01-30T15:48:39.534Z,7.38
2023-01-30T15:51:10.813Z,6.63
2023-01-30T15:53:44.837Z,6.85
2023-01-30T15:56:25.085Z,6.72
2023-01-30T15:58:52.272Z,21.95
2023-01-30T16:01:21.612Z,7.38
2023-01-30T16:03:50.271Z,7.43
2023-01-30T16:06:30.364Z,6.78
2023-01-30T16:09:20.230Z,6.07
2023-01-30T16:11:47.123Z,12.90
2023-01-30T16:14:19.221Z,6.72
2023-01-30T16:16:55.334Z,8.13
2023-01-30T16:19:29.707Z,7.70
2023-01-30T16:22:05.725Z,8.10
2023-01-30T16:24:35.812Z,9.48
2023-01-30T16:27:07.259Z,8.77
2023-01-30T16:29:46.227Z,6.10
2023-01-30T16:32:14.502Z,8.20
2023-01-30T16:34:41.434Z,6.95
2023-01-30T16:37:17.010Z,6.70
2023-01-30T16:39:45.764Z,7.70
2023-01-30T16:42:29.737Z,7.78
2023-01-30T16:45:20.836Z,6.63
2023-01-30T16:47:48.221Z,7.38
2023-01-30T16:50:23.274Z,7.00
2023-01-30T16:52:55.358Z,7.80
2023-01-30T16:55:24.635Z,7.35
2023-01-30T16:57:57.006Z,7.80
2023-01-30T17:00:36.540Z,6.90
2023-01-30T17:03:22.891Z,7.63
2023-01-30T17:05:50.187Z,7.45
2023-01-30T17:08:54.048Z,6.20
2023-01-30T17:11:41.118Z,8.55
2023-01-30T17:14:16.627Z,9.43
2023-01-30T17:16:46.376Z,9.55
2023-01-30T17:19:14.634Z,7.72
2023-01-30T17:22:02.281Z,7.25
2023-01-30T17:24:29.322Z,6.68
2023-01-30T17:27:02.449Z,6.85
2023-01-30T17:29:47.039Z,8.65
2023-01-30T17:32:16.264Z,6.50
2023-01-30T17:34:43.275Z,5.68
2023-01-30T17:37:18.463Z,7.18
2023-01-30T17:39:45.506Z,6.95
2023-01-30T17:42:13.641Z,5.97
2023-01-30T17:44:41.067Z,5.88
2023-01-30T17:47:10.071Z,6.43
2023-01-30T17:49:37.043Z,5.95
2023-01-30T17:52:04.036Z,6.25
2023-01-30T17:54:30.992Z,6.63
2023-01-30T17:57:04.216Z,5.85
2023-01-30T18:01:59.006Z,5.03
2023-01-30T18:04:25.945Z,5.60
2023-01-30T18:07:03.693Z,5.70
2023-01-30T18:09:30.766Z,6.38
2023-01-30T18:11:58.033Z,5.07
2023-01-30T18:14:24.877Z,5.28
2023-01-30T18:16:51.874Z,6.22
2023-01-30T18:19:23.998Z,7.93
2023-01-30T18:21:51.157Z,5.60
2023-01-30T18:24:18.608Z,5.05
2023-01-30T18:26:45.889Z,5.10
2023-01-30T18:29:12.920Z,6.05
2023-01-30T18:31:40.959Z,5.88
2023-01-30T18:34:09.965Z,4.70
2023-01-30T18:36:38.194Z,4.93
2023-01-30T18:39:07.109Z,8.15
2023-01-30T18:41:35.407Z,5.90
2023-01-30T18:44:04.882Z,8.32
2023-01-30T18:46:32.585Z,5.90
2023-01-30T18:48:59.881Z,5.50
2023-01-30T18:51:30.270Z,5.20
2023-01-30T18:53:57.848Z,4.68
2023-01-30T18:56:31.308Z,6.57
2023-01-30T18:59:02.507Z,6.63
2023-01-30T19:01:32.180Z,6.72
2023-01-30T19:04:01.069Z,5.10
2023-01-30T19:06:28.903Z,5.45
2023-01-30T19:08:57.890Z,6.00
2023-01-30T19:11:43.767Z,6.45
2023-01-30T19:14:11.264Z,4.53
2023-01-30T19:16:39.049Z,6.57
2023-01-30T19:19:07.011Z,4.50
2023-01-30T19:21:34.517Z,6.40
2023-01-30T19:24:07.792Z,4.20
2023-01-30T19:26:35.662Z,5.07
2023-01-30T19:29:02.592Z,5.82
2023-01-30T19:31:29.721Z,4.60
2023-01-30T19:33:59.121Z,5.35
2023-01-30T19:36:27.995Z,4.53
2023-01-30T19:38:55.110Z,6.18
2023-01-30T19:41:25.295Z,5.63
2023-01-30T19:43:53.329Z,5.47
2023-01-30T19:46:20.552Z,5.55
2023-01-30T19:48:49.049Z,6.18
2023-01-30T19:51:17.096Z,6.32
2023-01-30T19:53:45.534Z,7.88
2023-01-30T19:56:13.666Z,7.93
2023-01-30T19:58:41.321Z,6.05
2023-01-30T20:01:10.343Z,6.55
2023-01-30T20:03:38.270Z,7.05
2023-01-30T20:06:14.354Z,5.38
2023-01-30T20:08:42.474Z,7.10
2023-01-30T20:11:11.826Z,5.07
2023-01-30T20:13:40.243Z,7.15
2023-01-30T20:16:11.484Z,4.95
2023-01-30T20:18:39.298Z,6.60
2023-01-30T20:21:11.668Z,5.45
2023-01-30T20:23:41.362Z,5.43
2023-01-30T20:26:10.401Z,4.75
2023-01-30T20:28:37.313Z,6.22
2023-01-30T20:31:21.565Z,6.30
2023-01-30T20:33:48.980Z,6.30
2023-01-30T20:36:18.984Z,5.80
2023-01-30T20:38:47.505Z,6.15
2023-01-30T20:41:20.222Z,5.00
2023-01-30T20:43:51.033Z,9.93
2023-01-30T20:46:23.235Z,4.85
2023-01-30T20:48:53.478Z,7.25
2023-01-30T20:51:25.063Z,6.28
2023-01-30T20:53:58.391Z,4.05
2023-01-30T20:58:53.260Z,7.22
2023-01-30T21:01:23.289Z,4.85
2023-01-30T21:03:52.368Z,6.05
2023-01-30T21:06:42.643Z,6.00
2023-01-30T21:09:11.863Z,6.07
2023-01-30T21:11:39.468Z,4.07
2023-01-30T21:14:06.369Z,5.90
2023-01-30T21:16:35.408Z,5.10
2023-01-30T21:19:05.596Z,5.75
2023-01-30T21:21:37.065Z,5.70
2023-01-30T21:24:07.401Z,5.22
2023-01-30T21:26:37.104Z,4.85
2023-01-30T21:29:06.284Z,6.20
2023-01-30T21:31:34.907Z,3.95
2023-01-30T21:34:02.366Z,5.03
2023-01-30T21:36:29.799Z,3.85
2023-01-30T21:39:15.130Z,3.60
2023-01-30T21:42:02.919Z,5.03
2023-01-30T21:44:38.002Z,4.55
2023-01-30T21:47:06.468Z,4.28
2023-01-30T21:49:33.702Z,4.00
2023-01-30T21:52:02.965Z,4.05
2023-01-30T21:54:29.704Z,6.10
2023-01-30T21:56:56.962Z,4.18
2023-01-30T21:59:23.757Z,3.80
2023-01-30T22:01:50.997Z,4.70
2023-01-30T22:04:17.864Z,3.60
2023-01-30T22:06:45.004Z,4.20
2023-01-30T22:09:16.108Z,3.70
2023-01-30T22:11:43.444Z,3.10
2023-01-30T22:14:13.460Z,6.05
2023-01-30T22:16:40.817Z,3.78
2023-01-30T22:19:07.937Z,4.57
2023-01-30T22:21:37.586Z,5.22
2023-01-30T22:24:05.892Z,4.65
2023-01-30T22:26:34.117Z,4.70
2023-01-30T22:29:03.646Z,4.13
2023-01-30T22:31:36.663Z,4.00
2023-01-30T22:34:05.005Z,5.63
2023-01-30T22:36:33.223Z,3.80
2023-01-30T22:39:00.226Z,4.28
2023-01-30T22:41:30.546Z,5.00
2023-01-30T22:43:59.369Z,4.43
2023-01-30T22:46:31.600Z,5.20
2023-01-30T22:48:59.533Z,3.83
2023-01-30T22:51:31.795Z,3.88
2023-01-30T22:54:01.135Z,3.03
2023-01-30T22:56:39.812Z,4.50
2023-01-30T22:59:07.151Z,3.30
2023-01-30T23:01:37.086Z,2.55
2023-01-30T23:04:11.609Z,3.33
2023-01-30T23:06:39.202Z,4.43
2023-01-30T23:09:07.649Z,6.15
2023-01-30T23:11:37.977Z,2.75
2023-01-30T23:14:11.775Z,3.17
2023-01-30T23:16:41.290Z,1.83
2023-01-30T23:19:09.562Z,2.22
2023-01-30T23:21:37.997Z,2.22
2023-01-30T23:24:13.584Z,3.78
2023-01-30T23:26:43.109Z,1.95
2023-01-30T23:29:13.354Z,3.55
2023-01-30T23:31:41.387Z,2.25
2023-01-30T23:34:11.756Z,4.50
2023-01-30T23:36:38.881Z,3.17
2023-01-30T23:39:05.789Z,2.63
2023-01-30T23:41:35.252Z,2.78
2023-01-30T23:44:02.365Z,2.88
2023-01-30T23:46:40.704Z,4.55
2023-01-30T23:49:09.946Z,2.72
2023-01-30T23:51:39.870Z,2.28
2023-01-30T23:54:07.598Z,2.70
2023-01-30T23:56:36.481Z,2.25
2023-01-30T23:59:04.218Z,3.08
